sensor_id;sensor_type;location;lat;lon;timestamp;P1;durP1;ratioP1;P2;durP2;ratioP2
11386;SDS011;5748;53.102;8.456;2022-08-11T00:01:22;0.70;;;0.70;;
11386;SDS011;5748;53.102;8.456;2022-08-11T00:03:54;0.60;;;0.60;;
11386;SDS011;5748;53.102;8.456;2022-08-11T00:06:23;0.80;;;0.80;;
11386;SDS011;5748;53.102;8.456;2022-08-11T00:08:53;0.70;;;0.70;;
11386;SDS011;5748;53.102;8.456;2022-08-11T00:11:21;0.60;;;0.60;;
11386;SDS011;5748;53.102;8.456;2022-08-11T00:19:47;0.60;;;0.60;;
11386;SDS011;5748;53.102;8.456;2022-08-11T00:22:18;0.60;;;0.60;;
11386;SDS011;5748;53.102;8.456;2022-08-11T00:24:47;0.87;;;0.70;;
11386;SDS011;5748;53.102;8.456;2022-08-11T00:27:16;0.70;;;0.67;;
11386;SDS011;5748;53.102;8.456;2022-08-11T00:29:51;0.60;;;0.60;;
11386;SDS011;5748;53.102;8.456;2022-08-11T00:32:19;1.00;;;0.90;;
11386;SDS011;5748;53.102;8.456;2022-08-11T00:34:48;0.70;;;0.70;;
11386;SDS011;5748;53.102;8.456;2022-08-11T00:37:17;0.70;;;0.70;;
11386;SDS011;5748;53.102;8.456;2022-08-11T00:39:47;0.70;;;0.70;;
11386;SDS011;5748;53.102;8.456;2022-08-11T00:42:22;1.70;;;0.63;;
11386;SDS011;5748;53.102;8.456;2022-08-11T00:45:03;0.60;;;0.60;;
11386;SDS011;5748;53.102;8.456;2022-08-11T00:47:39;0.70;;;0.70;;
11386;SDS011;5748;53.102;8.456;2022-08-11T00:50:23;0.70;;;0.70;;
11386;SDS011;5748;53.102;8.456;2022-08-11T00:56:22;0.70;;;0.70;;
11386;SDS011;5748;53.102;8.456;2022-08-11T00:59:32;0.73;;;0.73;;
11386;SDS011;5748;53.102;8.456;2022-08-11T01:08:39;0.70;;;0.70;;
11386;SDS011;5748;53.102;8.456;2022-08-11T01:18:38;0.80;;;0.80;;
11386;SDS011;5748;53.102;8.456;2022-08-11T01:22:05;0.60;;;0.60;;
11386;SDS011;5748;53.102;8.456;2022-08-11T01:25:15;0.70;;;0.70;;
11386;SDS011;5748;53.102;8.456;2022-08-11T01:32:07;0.60;;;0.60;;
11386;SDS011;5748;53.102;8.456;2022-08-11T01:35:19;0.60;;;0.60;;
11386;SDS011;5748;53.102;8.456;2022-08-11T01:38:07;0.60;;;0.60;;
11386;SDS011;5748;53.102;8.456;2022-08-11T01:44:44;0.60;;;0.60;;
11386;SDS011;5748;53.102;8.456;2022-08-11T01:50:36;0.70;;;0.70;;
11386;SDS011;5748;53.102;8.456;2022-08-11T01:53:20;0.70;;;0.70;;
11386;SDS011;5748;53.102;8.456;2022-08-11T01:56:03;1.00;;;0.90;;
11386;SDS011;5748;53.102;8.456;2022-08-11T01:58:47;0.70;;;0.70;;
11386;SDS011;5748;53.102;8.456;2022-08-11T02:01:31;0.80;;;0.80;;
11386;SDS011;5748;53.102;8.456;2022-08-11T02:04:13;0.80;;;0.80;;
11386;SDS011;5748;53.102;8.456;2022-08-11T02:06:54;0.80;;;0.80;;
11386;SDS011;5748;53.102;8.456;2022-08-11T02:12:27;2.40;;;1.13;;
11386;SDS011;5748;53.102;8.456;2022-08-11T02:15:11;1.63;;;0.90;;
11386;SDS011;5748;53.102;8.456;2022-08-11T02:17:49;0.87;;;0.87;;
11386;SDS011;5748;53.102;8.456;2022-08-11T02:20:26;0.77;;;0.77;;
11386;SDS011;5748;53.102;8.456;2022-08-11T02:23:22;0.93;;;0.87;;
11386;SDS011;5748;53.102;8.456;2022-08-11T02:26:17;0.80;;;0.80;;
11386;SDS011;5748;53.102;8.456;2022-08-11T02:28:52;0.80;;;0.80;;
11386;SDS011;5748;53.102;8.456;2022-08-11T02:31:44;0.83;;;0.83;;
11386;SDS011;5748;53.102;8.456;2022-08-11T02:34:41;1.23;;;0.87;;
11386;SDS011;5748;53.102;8.456;2022-08-11T02:37:16;0.90;;;0.90;;
11386;SDS011;5748;53.102;8.456;2022-08-11T02:40:01;0.90;;;0.90;;
11386;SDS011;5748;53.102;8.456;2022-08-11T02:42:41;0.90;;;0.90;;
11386;SDS011;5748;53.102;8.456;2022-08-11T02:45:33;0.80;;;0.80;;
11386;SDS011;5748;53.102;8.456;2022-08-11T02:48:26;1.00;;;1.00;;
11386;SDS011;5748;53.102;8.456;2022-08-11T02:51:24;0.90;;;0.90;;
11386;SDS011;5748;53.102;8.456;2022-08-11T02:54:04;1.37;;;1.10;;
11386;SDS011;5748;53.102;8.456;2022-08-11T02:56:41;1.00;;;1.00;;
11386;SDS011;5748;53.102;8.456;2022-08-11T02:59:25;1.03;;;0.90;;
11386;SDS011;5748;53.102;8.456;2022-08-11T03:05:24;1.30;;;1.20;;
11386;SDS011;5748;53.102;8.456;2022-08-11T03:08:06;1.13;;;1.10;;
11386;SDS011;5748;53.102;8.456;2022-08-11T03:11:04;0.90;;;0.90;;
11386;SDS011;5748;53.102;8.456;2022-08-11T03:17:12;1.10;;;1.10;;
11386;SDS011;5748;53.102;8.456;2022-08-11T03:19:52;0.93;;;0.93;;
11386;SDS011;5748;53.102;8.456;2022-08-11T03:22:39;0.90;;;0.90;;
11386;SDS011;5748;53.102;8.456;2022-08-11T03:25:20;0.90;;;0.90;;
11386;SDS011;5748;53.102;8.456;2022-08-11T03:28:00;1.07;;;1.00;;
11386;SDS011;5748;53.102;8.456;2022-08-11T03:30:51;0.90;;;0.90;;
11386;SDS011;5748;53.102;8.456;2022-08-11T03:40:06;1.20;;;0.80;;
11386;SDS011;5748;53.102;8.456;2022-08-11T03:43:07;1.07;;;0.97;;
11386;SDS011;5748;53.102;8.456;2022-08-11T03:45:48;0.97;;;0.90;;
11386;SDS011;5748;53.102;8.456;2022-08-11T03:48:30;1.27;;;1.17;;
11386;SDS011;5748;53.102;8.456;2022-08-11T03:51:19;1.40;;;1.30;;
11386;SDS011;5748;53.102;8.456;2022-08-11T03:53:55;1.20;;;1.10;;
11386;SDS011;5748;53.102;8.456;2022-08-11T04:00:14;1.00;;;1.00;;
11386;SDS011;5748;53.102;8.456;2022-08-11T04:06:24;1.00;;;1.00;;
11386;SDS011;5748;53.102;8.456;2022-08-11T04:12:52;1.20;;;1.10;;
11386;SDS011;5748;53.102;8.456;2022-08-11T04:19:29;1.10;;;1.00;;
11386;SDS011;5748;53.102;8.456;2022-08-11T04:25:46;1.00;;;1.00;;
11386;SDS011;5748;53.102;8.456;2022-08-11T04:31:42;0.93;;;0.90;;
11386;SDS011;5748;53.102;8.456;2022-08-11T04:34:54;0.90;;;0.90;;
11386;SDS011;5748;53.102;8.456;2022-08-11T04:47:50;1.10;;;1.00;;
11386;SDS011;5748;53.102;8.456;2022-08-11T04:51:11;1.20;;;1.10;;
11386;SDS011;5748;53.102;8.456;2022-08-11T04:54:22;1.07;;;0.97;;
11386;SDS011;5748;53.102;8.456;2022-08-11T04:57:21;1.10;;;1.00;;
11386;SDS011;5748;53.102;8.456;2022-08-11T05:00:38;0.73;;;0.73;;
11386;SDS011;5748;53.102;8.456;2022-08-11T05:03:42;1.10;;;1.00;;
11386;SDS011;5748;53.102;8.456;2022-08-11T05:10:16;1.13;;;1.03;;
11386;SDS011;5748;53.102;8.456;2022-08-11T05:12:51;2.77;;;1.10;;
11386;SDS011;5748;53.102;8.456;2022-08-11T05:15:23;1.00;;;1.00;;
11386;SDS011;5748;53.102;8.456;2022-08-11T05:18:18;1.30;;;1.20;;
11386;SDS011;5748;53.102;8.456;2022-08-11T05:24:19;1.30;;;1.20;;
11386;SDS011;5748;53.102;8.456;2022-08-11T05:27:06;1.07;;;1.07;;
11386;SDS011;5748;53.102;8.456;2022-08-11T05:29:56;2.33;;;1.37;;
11386;SDS011;5748;53.102;8.456;2022-08-11T05:32:54;1.50;;;1.40;;
11386;SDS011;5748;53.102;8.456;2022-08-11T05:35:46;1.50;;;1.40;;
11386;SDS011;5748;53.102;8.456;2022-08-11T05:38:15;1.33;;;1.23;;
11386;SDS011;5748;53.102;8.456;2022-08-11T05:41:08;1.43;;;1.33;;
11386;SDS011;5748;53.102;8.456;2022-08-11T05:43:56;2.17;;;1.43;;
11386;SDS011;5748;53.102;8.456;2022-08-11T05:46:43;1.50;;;1.40;;
11386;SDS011;5748;53.102;8.456;2022-08-11T05:52:36;1.40;;;1.30;;
11386;SDS011;5748;53.102;8.456;2022-08-11T05:55:22;1.33;;;1.23;;
11386;SDS011;5748;53.102;8.456;2022-08-11T05:58:09;1.50;;;1.40;;
11386;SDS011;5748;53.102;8.456;2022-08-11T06:00:42;1.63;;;1.30;;
11386;SDS011;5748;53.102;8.456;2022-08-11T06:03:19;1.70;;;1.50;;
11386;SDS011;5748;53.102;8.456;2022-08-11T06:05:52;1.50;;;1.40;;
11386;SDS011;5748;53.102;8.456;2022-08-11T06:08:26;1.30;;;1.20;;
11386;SDS011;5748;53.102;8.456;2022-08-11T06:10:58;1.47;;;1.37;;
11386;SDS011;5748;53.102;8.456;2022-08-11T06:13:28;1.40;;;1.10;;
11386;SDS011;5748;53.102;8.456;2022-08-11T06:15:58;1.25;;;1.23;;
11386;SDS011;5748;53.102;8.456;2022-08-11T06:18:44;1.95;;;1.42;;
11386;SDS011;5748;53.102;8.456;2022-08-11T06:21:11;1.67;;;1.50;;
11386;SDS011;5748;53.102;8.456;2022-08-11T06:23:39;1.38;;;1.20;;
11386;SDS011;5748;53.102;8.456;2022-08-11T06:26:24;1.40;;;1.30;;
11386;SDS011;5748;53.102;8.456;2022-08-11T06:28:52;1.40;;;1.30;;
11386;SDS011;5748;53.102;8.456;2022-08-11T06:31:25;1.50;;;1.40;;
11386;SDS011;5748;53.102;8.456;2022-08-11T06:33:54;1.13;;;1.10;;
11386;SDS011;5748;53.102;8.456;2022-08-11T06:36:33;1.77;;;1.27;;
11386;SDS011;5748;53.102;8.456;2022-08-11T06:39:12;1.35;;;1.25;;
11386;SDS011;5748;53.102;8.456;2022-08-11T06:41:47;1.77;;;1.48;;
11386;SDS011;5748;53.102;8.456;2022-08-11T06:44:23;1.48;;;1.38;;
11386;SDS011;5748;53.102;8.456;2022-08-11T06:47:03;1.30;;;1.20;;
11386;SDS011;5748;53.102;8.456;2022-08-11T06:49:33;1.20;;;1.10;;
11386;SDS011;5748;53.102;8.456;2022-08-11T06:52:27;1.40;;;1.30;;
11386;SDS011;5748;53.102;8.456;2022-08-11T07:01:35;1.85;;;1.23;;
11386;SDS011;5748;53.102;8.456;2022-08-11T07:04:10;1.35;;;1.25;;
11386;SDS011;5748;53.102;8.456;2022-08-11T07:06:47;1.52;;;1.38;;
11386;SDS011;5748;53.102;8.456;2022-08-11T07:13:03;1.10;;;1.00;;
11386;SDS011;5748;53.102;8.456;2022-08-11T07:15:49;1.20;;;1.10;;
11386;SDS011;5748;53.102;8.456;2022-08-11T07:18:24;1.88;;;1.05;;
11386;SDS011;5748;53.102;8.456;2022-08-11T07:21:11;1.48;;;1.38;;
11386;SDS011;5748;53.102;8.456;2022-08-11T07:24:17;1.75;;;1.10;;
11386;SDS011;5748;53.102;8.456;2022-08-11T07:27:07;0.95;;;0.93;;
11386;SDS011;5748;53.102;8.456;2022-08-11T07:30:03;1.42;;;1.17;;
11386;SDS011;5748;53.102;8.456;2022-08-11T07:32:36;1.10;;;1.10;;
11386;SDS011;5748;53.102;8.456;2022-08-11T07:35:19;1.10;;;1.10;;
11386;SDS011;5748;53.102;8.456;2022-08-11T07:38:06;1.20;;;1.10;;
11386;SDS011;5748;53.102;8.456;2022-08-11T07:40:42;1.10;;;1.00;;
11386;SDS011;5748;53.102;8.456;2022-08-11T07:46:34;1.23;;;1.13;;
11386;SDS011;5748;53.102;8.456;2022-08-11T07:49:22;1.05;;;1.05;;
11386;SDS011;5748;53.102;8.456;2022-08-11T07:52:09;1.20;;;1.10;;
11386;SDS011;5748;53.102;8.456;2022-08-11T07:57:51;2.38;;;1.15;;
11386;SDS011;5748;53.102;8.456;2022-08-11T08:00:37;0.95;;;0.93;;
11386;SDS011;5748;53.102;8.456;2022-08-11T08:03:26;1.10;;;1.00;;
11386;SDS011;5748;53.102;8.456;2022-08-11T08:06:12;1.60;;;1.10;;
11386;SDS011;5748;53.102;8.456;2022-08-11T08:08:59;1.15;;;1.10;;
11386;SDS011;5748;53.102;8.456;2022-08-11T08:11:44;1.13;;;1.02;;
11386;SDS011;5748;53.102;8.456;2022-08-11T08:14:34;1.30;;;1.17;;
11386;SDS011;5748;53.102;8.456;2022-08-11T08:17:20;1.30;;;1.20;;
11386;SDS011;5748;53.102;8.456;2022-08-11T08:20:12;1.20;;;1.10;;
11386;SDS011;5748;53.102;8.456;2022-08-11T08:22:44;1.10;;;1.00;;
11386;SDS011;5748;53.102;8.456;2022-08-11T08:25:13;1.23;;;1.10;;
11386;SDS011;5748;53.102;8.456;2022-08-11T08:27:42;1.00;;;1.00;;
11386;SDS011;5748;53.102;8.456;2022-08-11T08:30:10;1.10;;;1.00;;
11386;SDS011;5748;53.102;8.456;2022-08-11T08:32:56;1.27;;;1.00;;
11386;SDS011;5748;53.102;8.456;2022-08-11T08:35:27;1.20;;;1.10;;
11386;SDS011;5748;53.102;8.456;2022-08-11T08:37:55;0.90;;;0.90;;
11386;SDS011;5748;53.102;8.456;2022-08-11T08:40:26;1.27;;;1.10;;
11386;SDS011;5748;53.102;8.456;2022-08-11T08:42:55;1.40;;;1.25;;
11386;SDS011;5748;53.102;8.456;2022-08-11T08:45:29;1.10;;;1.02;;
11386;SDS011;5748;53.102;8.456;2022-08-11T08:48:03;1.30;;;1.20;;
11386;SDS011;5748;53.102;8.456;2022-08-11T08:50:37;0.82;;;0.82;;
11386;SDS011;5748;53.102;8.456;2022-08-11T08:53:34;1.20;;;1.10;;
11386;SDS011;5748;53.102;8.456;2022-08-11T08:58:55;1.40;;;1.30;;
11386;SDS011;5748;53.102;8.456;2022-08-11T09:01:35;1.02;;;1.00;;
11386;SDS011;5748;53.102;8.456;2022-08-11T09:04:16;1.10;;;1.00;;
11386;SDS011;5748;53.102;8.456;2022-08-11T09:06:44;1.95;;;1.00;;
11386;SDS011;5748;53.102;8.456;2022-08-11T09:12:04;0.80;;;0.80;;
11386;SDS011;5748;53.102;8.456;2022-08-11T09:14:33;1.20;;;1.10;;
11386;SDS011;5748;53.102;8.456;2022-08-11T09:17:19;1.20;;;1.10;;
11386;SDS011;5748;53.102;8.456;2022-08-11T09:19:50;1.00;;;1.00;;
11386;SDS011;5748;53.102;8.456;2022-08-11T09:22:24;2.00;;;0.90;;
11386;SDS011;5748;53.102;8.456;2022-08-11T09:25:10;0.70;;;0.70;;
11386;SDS011;5748;53.102;8.456;2022-08-11T09:27:56;0.80;;;0.80;;
11386;SDS011;5748;53.102;8.456;2022-08-11T09:30:25;1.48;;;1.00;;
11386;SDS011;5748;53.102;8.456;2022-08-11T09:32:52;0.70;;;0.70;;
11386;SDS011;5748;53.102;8.456;2022-08-11T09:35:32;0.82;;;0.82;;
11386;SDS011;5748;53.102;8.456;2022-08-11T09:38:03;2.75;;;0.90;;
11386;SDS011;5748;53.102;8.456;2022-08-11T09:41:00;0.77;;;0.77;;
11386;SDS011;5748;53.102;8.456;2022-08-11T09:43:32;1.48;;;0.90;;
11386;SDS011;5748;53.102;8.456;2022-08-11T09:46:20;0.70;;;0.70;;
11386;SDS011;5748;53.102;8.456;2022-08-11T09:48:52;0.70;;;0.70;;
11386;SDS011;5748;53.102;8.456;2022-08-11T09:51:23;0.70;;;0.70;;
11386;SDS011;5748;53.102;8.456;2022-08-11T09:54:00;1.13;;;1.00;;
11386;SDS011;5748;53.102;8.456;2022-08-11T09:56:31;0.80;;;0.80;;
11386;SDS011;5748;53.102;8.456;2022-08-11T09:59:20;1.20;;;0.70;;
11386;SDS011;5748;53.102;8.456;2022-08-11T10:01:49;0.70;;;0.70;;
11386;SDS011;5748;53.102;8.456;2022-08-11T10:04:24;0.70;;;0.70;;
11386;SDS011;5748;53.102;8.456;2022-08-11T10:06:57;0.88;;;0.88;;
11386;SDS011;5748;53.102;8.456;2022-08-11T10:09:28;0.75;;;0.75;;
11386;SDS011;5748;53.102;8.456;2022-08-11T10:12:05;0.90;;;0.90;;
11386;SDS011;5748;53.102;8.456;2022-08-11T10:14:38;0.98;;;0.98;;
11386;SDS011;5748;53.102;8.456;2022-08-11T10:17:27;1.55;;;1.00;;
11386;SDS011;5748;53.102;8.456;2022-08-11T10:19:59;1.17;;;1.15;;
11386;SDS011;5748;53.102;8.456;2022-08-11T10:22:28;1.00;;;1.00;;
11386;SDS011;5748;53.102;8.456;2022-08-11T10:25:14;1.02;;;1.02;;
11386;SDS011;5748;53.102;8.456;2022-08-11T10:27:58;1.30;;;1.20;;
11386;SDS011;5748;53.102;8.456;2022-08-11T10:30:32;1.77;;;1.65;;
11386;SDS011;5748;53.102;8.456;2022-08-11T10:33:16;1.35;;;1.25;;
11386;SDS011;5748;53.102;8.456;2022-08-11T10:36:02;1.40;;;1.30;;
11386;SDS011;5748;53.102;8.456;2022-08-11T10:38:31;1.08;;;1.08;;
11386;SDS011;5748;53.102;8.456;2022-08-11T10:40:59;0.98;;;0.98;;
11386;SDS011;5748;53.102;8.456;2022-08-11T10:46:31;1.13;;;1.02;;
11386;SDS011;5748;53.102;8.456;2022-08-11T10:49:15;0.93;;;0.90;;
11386;SDS011;5748;53.102;8.456;2022-08-11T10:51:44;0.80;;;0.80;;
11386;SDS011;5748;53.102;8.456;2022-08-11T10:54:30;1.00;;;1.00;;
11386;SDS011;5748;53.102;8.456;2022-08-11T10:57:18;0.88;;;0.88;;
11386;SDS011;5748;53.102;8.456;2022-08-11T11:02:41;0.88;;;0.88;;
11386;SDS011;5748;53.102;8.456;2022-08-11T11:05:11;0.73;;;0.73;;
11386;SDS011;5748;53.102;8.456;2022-08-11T11:07:46;0.90;;;0.90;;
11386;SDS011;5748;53.102;8.456;2022-08-11T11:10:52;0.68;;;0.68;;
11386;SDS011;5748;53.102;8.456;2022-08-11T11:13:21;0.80;;;0.80;;
11386;SDS011;5748;53.102;8.456;2022-08-11T11:16:07;0.70;;;0.70;;
11386;SDS011;5748;53.102;8.456;2022-08-11T11:19:06;0.80;;;0.80;;
11386;SDS011;5748;53.102;8.456;2022-08-11T11:21:34;0.95;;;0.90;;
11386;SDS011;5748;53.102;8.456;2022-08-11T11:24:06;0.80;;;0.80;;
11386;SDS011;5748;53.102;8.456;2022-08-11T11:26:51;0.70;;;0.70;;
11386;SDS011;5748;53.102;8.456;2022-08-11T11:29:34;0.68;;;0.68;;
11386;SDS011;5748;53.102;8.456;2022-08-11T11:32:23;0.70;;;0.70;;
11386;SDS011;5748;53.102;8.456;2022-08-11T11:35:18;0.70;;;0.70;;
11386;SDS011;5748;53.102;8.456;2022-08-11T11:38:00;0.90;;;0.90;;
11386;SDS011;5748;53.102;8.456;2022-08-11T11:40:32;0.70;;;0.70;;
11386;SDS011;5748;53.102;8.456;2022-08-11T11:43:01;0.88;;;0.70;;
11386;SDS011;5748;53.102;8.456;2022-08-11T11:45:30;0.70;;;0.70;;
11386;SDS011;5748;53.102;8.456;2022-08-11T11:47:58;0.88;;;0.85;;
11386;SDS011;5748;53.102;8.456;2022-08-11T11:50:28;0.65;;;0.65;;
11386;SDS011;5748;53.102;8.456;2022-08-11T11:52:59;0.80;;;0.80;;
11386;SDS011;5748;53.102;8.456;2022-08-11T11:55:30;0.70;;;0.70;;
11386;SDS011;5748;53.102;8.456;2022-08-11T11:57:57;0.80;;;0.80;;
11386;SDS011;5748;53.102;8.456;2022-08-11T12:00:44;0.73;;;0.73;;
11386;SDS011;5748;53.102;8.456;2022-08-11T12:03:29;0.80;;;0.80;;
11386;SDS011;5748;53.102;8.456;2022-08-11T12:05:59;1.13;;;1.00;;
11386;SDS011;5748;53.102;8.456;2022-08-11T12:08:28;0.80;;;0.80;;
11386;SDS011;5748;53.102;8.456;2022-08-11T12:10:57;0.80;;;0.80;;
11386;SDS011;5748;53.102;8.456;2022-08-11T12:13:46;2.15;;;0.80;;
11386;SDS011;5748;53.102;8.456;2022-08-11T12:16:15;0.80;;;0.80;;
11386;SDS011;5748;53.102;8.456;2022-08-11T12:18:45;0.70;;;0.70;;
11386;SDS011;5748;53.102;8.456;2022-08-11T12:21:16;0.60;;;0.60;;
11386;SDS011;5748;53.102;8.456;2022-08-11T12:23:44;0.70;;;0.70;;
11386;SDS011;5748;53.102;8.456;2022-08-11T12:26:30;0.70;;;0.70;;
11386;SDS011;5748;53.102;8.456;2022-08-11T12:29:19;0.68;;;0.68;;
11386;SDS011;5748;53.102;8.456;2022-08-11T12:31:51;0.80;;;0.80;;
11386;SDS011;5748;53.102;8.456;2022-08-11T12:34:19;0.63;;;0.63;;
11386;SDS011;5748;53.102;8.456;2022-08-11T12:36:50;0.70;;;0.60;;
11386;SDS011;5748;53.102;8.456;2022-08-11T12:39:24;0.80;;;0.80;;
11386;SDS011;5748;53.102;8.456;2022-08-11T12:42:08;0.70;;;0.70;;
11386;SDS011;5748;53.102;8.456;2022-08-11T12:44:54;0.65;;;0.65;;
11386;SDS011;5748;53.102;8.456;2022-08-11T12:47:41;0.60;;;0.60;;
11386;SDS011;5748;53.102;8.456;2022-08-11T12:50:30;0.60;;;0.60;;
11386;SDS011;5748;53.102;8.456;2022-08-11T12:53:18;0.68;;;0.68;;
11386;SDS011;5748;53.102;8.456;2022-08-11T12:55:51;0.70;;;0.70;;
11386;SDS011;5748;53.102;8.456;2022-08-11T12:58:39;0.70;;;0.70;;
11386;SDS011;5748;53.102;8.456;2022-08-11T13:01:08;0.70;;;0.70;;
11386;SDS011;5748;53.102;8.456;2022-08-11T13:03:53;0.73;;;0.70;;
11386;SDS011;5748;53.102;8.456;2022-08-11T13:06:38;0.70;;;0.70;;
11386;SDS011;5748;53.102;8.456;2022-08-11T13:09:08;0.68;;;0.60;;
11386;SDS011;5748;53.102;8.456;2022-08-11T13:11:37;0.60;;;0.60;;
11386;SDS011;5748;53.102;8.456;2022-08-11T13:14:22;0.63;;;0.63;;
11386;SDS011;5748;53.102;8.456;2022-08-11T13:16:51;0.70;;;0.70;;
11386;SDS011;5748;53.102;8.456;2022-08-11T13:19:36;0.68;;;0.68;;
11386;SDS011;5748;53.102;8.456;2022-08-11T13:22:03;0.80;;;0.65;;
11386;SDS011;5748;53.102;8.456;2022-08-11T13:24:32;0.50;;;0.50;;
11386;SDS011;5748;53.102;8.456;2022-08-11T13:27:01;0.68;;;0.68;;
11386;SDS011;5748;53.102;8.456;2022-08-11T13:29:28;0.50;;;0.50;;
11386;SDS011;5748;53.102;8.456;2022-08-11T13:31:56;0.43;;;0.43;;
11386;SDS011;5748;53.102;8.456;2022-08-11T13:34:25;1.00;;;0.80;;
11386;SDS011;5748;53.102;8.456;2022-08-11T13:36:55;0.60;;;0.60;;
11386;SDS011;5748;53.102;8.456;2022-08-11T13:39:26;0.70;;;0.70;;
11386;SDS011;5748;53.102;8.456;2022-08-11T13:41:58;0.60;;;0.60;;
11386;SDS011;5748;53.102;8.456;2022-08-11T13:44:27;0.60;;;0.60;;
11386;SDS011;5748;53.102;8.456;2022-08-11T13:46:57;0.60;;;0.60;;
11386;SDS011;5748;53.102;8.456;2022-08-11T13:49:28;0.77;;;0.77;;
11386;SDS011;5748;53.102;8.456;2022-08-11T13:51:56;0.60;;;0.60;;
11386;SDS011;5748;53.102;8.456;2022-08-11T13:54:25;0.70;;;0.70;;
11386;SDS011;5748;53.102;8.456;2022-08-11T13:56:59;0.65;;;0.65;;
11386;SDS011;5748;53.102;8.456;2022-08-11T13:59:30;0.50;;;0.50;;
11386;SDS011;5748;53.102;8.456;2022-08-11T14:01:58;0.63;;;0.63;;
11386;SDS011;5748;53.102;8.456;2022-08-11T14:04:29;0.70;;;0.70;;
11386;SDS011;5748;53.102;8.456;2022-08-11T14:07:01;0.60;;;0.60;;
11386;SDS011;5748;53.102;8.456;2022-08-11T14:09:33;0.60;;;0.60;;
11386;SDS011;5748;53.102;8.456;2022-08-11T14:12:06;0.52;;;0.52;;
11386;SDS011;5748;53.102;8.456;2022-08-11T14:14:55;0.60;;;0.60;;
11386;SDS011;5748;53.102;8.456;2022-08-11T14:17:28;0.60;;;0.60;;
11386;SDS011;5748;53.102;8.456;2022-08-11T14:19:59;0.55;;;0.55;;
11386;SDS011;5748;53.102;8.456;2022-08-11T14:22:31;0.47;;;0.47;;
11386;SDS011;5748;53.102;8.456;2022-08-11T14:24:59;0.50;;;0.50;;
11386;SDS011;5748;53.102;8.456;2022-08-11T14:27:29;0.50;;;0.50;;
11386;SDS011;5748;53.102;8.456;2022-08-11T14:29:57;0.60;;;0.60;;
11386;SDS011;5748;53.102;8.456;2022-08-11T14:32:24;0.60;;;0.60;;
11386;SDS011;5748;53.102;8.456;2022-08-11T14:34:52;1.95;;;0.80;;
11386;SDS011;5748;53.102;8.456;2022-08-11T14:37:20;0.80;;;0.80;;
11386;SDS011;5748;53.102;8.456;2022-08-11T14:39:50;0.60;;;0.60;;
11386;SDS011;5748;53.102;8.456;2022-08-11T14:42:23;0.60;;;0.60;;
11386;SDS011;5748;53.102;8.456;2022-08-11T14:45:10;6.05;;;0.57;;
11386;SDS011;5748;53.102;8.456;2022-08-11T14:48:02;0.52;;;0.52;;
11386;SDS011;5748;53.102;8.456;2022-08-11T14:50:34;0.50;;;0.50;;
11386;SDS011;5748;53.102;8.456;2022-08-11T14:53:03;0.52;;;0.52;;
11386;SDS011;5748;53.102;8.456;2022-08-11T14:55:34;0.70;;;0.70;;
11386;SDS011;5748;53.102;8.456;2022-08-11T14:58:30;0.60;;;0.60;;
11386;SDS011;5748;53.102;8.456;2022-08-11T15:01:00;0.65;;;0.65;;
11386;SDS011;5748;53.102;8.456;2022-08-11T15:03:48;0.70;;;0.70;;
11386;SDS011;5748;53.102;8.456;2022-08-11T15:06:16;0.70;;;0.70;;
11386;SDS011;5748;53.102;8.456;2022-08-11T15:08:49;0.70;;;0.70;;
11386;SDS011;5748;53.102;8.456;2022-08-11T15:11:24;1.05;;;0.80;;
11386;SDS011;5748;53.102;8.456;2022-08-11T15:14:13;0.65;;;0.65;;
11386;SDS011;5748;53.102;8.456;2022-08-11T15:17:03;0.60;;;0.60;;
11386;SDS011;5748;53.102;8.456;2022-08-11T15:19:34;0.70;;;0.70;;
11386;SDS011;5748;53.102;8.456;2022-08-11T15:22:26;0.80;;;0.77;;
11386;SDS011;5748;53.102;8.456;2022-08-11T15:25:11;0.60;;;0.60;;
11386;SDS011;5748;53.102;8.456;2022-08-11T15:27:39;0.60;;;0.60;;
11386;SDS011;5748;53.102;8.456;2022-08-11T15:30:25;0.70;;;0.70;;
11386;SDS011;5748;53.102;8.456;2022-08-11T15:36:02;1.00;;;0.60;;
11386;SDS011;5748;53.102;8.456;2022-08-11T15:38:51;0.70;;;0.70;;
11386;SDS011;5748;53.102;8.456;2022-08-11T15:41:22;0.70;;;0.70;;
11386;SDS011;5748;53.102;8.456;2022-08-11T15:44:14;0.73;;;0.73;;
11386;SDS011;5748;53.102;8.456;2022-08-11T15:47:01;1.38;;;0.90;;
11386;SDS011;5748;53.102;8.456;2022-08-11T15:49:36;0.85;;;0.73;;
11386;SDS011;5748;53.102;8.456;2022-08-11T15:52:05;1.33;;;0.90;;
11386;SDS011;5748;53.102;8.456;2022-08-11T15:54:37;0.70;;;0.70;;
11386;SDS011;5748;53.102;8.456;2022-08-11T15:57:07;1.38;;;0.82;;
11386;SDS011;5748;53.102;8.456;2022-08-11T15:59:55;0.90;;;0.90;;
11386;SDS011;5748;53.102;8.456;2022-08-11T16:02:42;0.70;;;0.70;;
11386;SDS011;5748;53.102;8.456;2022-08-11T16:05:29;0.90;;;0.90;;
11386;SDS011;5748;53.102;8.456;2022-08-11T16:07:56;0.70;;;0.70;;
11386;SDS011;5748;53.102;8.456;2022-08-11T16:10:25;0.80;;;0.80;;
11386;SDS011;5748;53.102;8.456;2022-08-11T16:12:54;1.45;;;0.77;;
11386;SDS011;5748;53.102;8.456;2022-08-11T16:15:47;1.00;;;0.90;;
11386;SDS011;5748;53.102;8.456;2022-08-11T16:18:37;4.50;;;3.88;;
11386;SDS011;5748;53.102;8.456;2022-08-11T16:21:13;4.60;;;3.65;;
11386;SDS011;5748;53.102;8.456;2022-08-11T16:23:44;2.80;;;2.50;;
11386;SDS011;5748;53.102;8.456;2022-08-11T16:26:13;2.28;;;2.08;;
11386;SDS011;5748;53.102;8.456;2022-08-11T16:28:43;4.38;;;2.28;;
11386;SDS011;5748;53.102;8.456;2022-08-11T16:31:11;1.80;;;1.70;;
11386;SDS011;5748;53.102;8.456;2022-08-11T16:33:40;1.60;;;1.33;;
11386;SDS011;5748;53.102;8.456;2022-08-11T16:36:09;1.30;;;1.20;;
11386;SDS011;5748;53.102;8.456;2022-08-11T16:38:56;1.40;;;1.30;;
11386;SDS011;5748;53.102;8.456;2022-08-11T16:41:26;1.33;;;1.20;;
11386;SDS011;5748;53.102;8.456;2022-08-11T16:44:15;1.08;;;0.98;;
11386;SDS011;5748;53.102;8.456;2022-08-11T16:47:01;0.98;;;0.98;;
11386;SDS011;5748;53.102;8.456;2022-08-11T16:49:32;0.90;;;0.90;;
11386;SDS011;5748;53.102;8.456;2022-08-11T16:52:02;0.90;;;0.90;;
11386;SDS011;5748;53.102;8.456;2022-08-11T16:54:37;1.10;;;0.93;;
11386;SDS011;5748;53.102;8.456;2022-08-11T16:57:07;1.10;;;1.00;;
11386;SDS011;5748;53.102;8.456;2022-08-11T16:59:57;0.90;;;0.90;;
11386;SDS011;5748;53.102;8.456;2022-08-11T17:02:30;1.25;;;0.90;;
11386;SDS011;5748;53.102;8.456;2022-08-11T17:05:19;1.50;;;0.80;;
11386;SDS011;5748;53.102;8.456;2022-08-11T17:08:08;1.13;;;0.80;;
11386;SDS011;5748;53.102;8.456;2022-08-11T17:10:56;1.08;;;1.00;;
11386;SDS011;5748;53.102;8.456;2022-08-11T17:13:58;0.90;;;0.90;;
11386;SDS011;5748;53.102;8.456;2022-08-11T17:16:33;1.10;;;0.85;;
11386;SDS011;5748;53.102;8.456;2022-08-11T17:19:04;1.48;;;0.90;;
11386;SDS011;5748;53.102;8.456;2022-08-11T17:21:37;1.67;;;1.20;;
11386;SDS011;5748;53.102;8.456;2022-08-11T17:24:27;1.00;;;0.90;;
11386;SDS011;5748;53.102;8.456;2022-08-11T17:26:57;0.80;;;0.80;;
11386;SDS011;5748;53.102;8.456;2022-08-11T17:29:27;3.28;;;1.23;;
11386;SDS011;5748;53.102;8.456;2022-08-11T17:31:58;1.40;;;1.23;;
11386;SDS011;5748;53.102;8.456;2022-08-11T17:34:47;1.83;;;1.20;;
11386;SDS011;5748;53.102;8.456;2022-08-11T17:37:34;2.83;;;1.30;;
11386;SDS011;5748;53.102;8.456;2022-08-11T17:40:04;1.08;;;1.00;;
11386;SDS011;5748;53.102;8.456;2022-08-11T17:42:37;3.53;;;2.13;;
11386;SDS011;5748;53.102;8.456;2022-08-11T17:45:24;2.30;;;1.50;;
11386;SDS011;5748;53.102;8.456;2022-08-11T17:48:10;1.85;;;1.45;;
11386;SDS011;5748;53.102;8.456;2022-08-11T17:50:51;2.03;;;1.23;;
11386;SDS011;5748;53.102;8.456;2022-08-11T17:53:20;1.20;;;1.10;;
11386;SDS011;5748;53.102;8.456;2022-08-11T17:56:13;1.42;;;1.30;;
11386;SDS011;5748;53.102;8.456;2022-08-11T17:59:00;4.68;;;3.67;;
11386;SDS011;5748;53.102;8.456;2022-08-11T18:01:45;3.53;;;3.15;;
11386;SDS011;5748;53.102;8.456;2022-08-11T18:04:14;2.90;;;2.30;;
11386;SDS011;5748;53.102;8.456;2022-08-11T18:06:41;2.05;;;1.85;;
11386;SDS011;5748;53.102;8.456;2022-08-11T18:09:10;3.13;;;2.53;;
11386;SDS011;5748;53.102;8.456;2022-08-11T18:12:02;2.88;;;1.83;;
11386;SDS011;5748;53.102;8.456;2022-08-11T18:14:52;6.60;;;5.90;;
11386;SDS011;5748;53.102;8.456;2022-08-11T18:17:38;3.80;;;3.47;;